Time;durP1;ratioP1;P1;durP2;ratioP2;P2;SDS_P1;SDS_P2;PMS_P1;PMS_P2;Temp;Humidity;BMP_temperature;BMP_pressure;BME280_temperature;BME280_humidity;BME280_pressure;Samples;Min_cycle;Max_cycle;Signal;HPM_P1;HPM_P2
2020/12/16 00:01:17;;;;;;;0.60;0.50;;;7.00;99.90;;;7.66;100.00;-20890.78;5015617;28;20739;-69
2020/12/16 00:03:45;;;;;;;0.60;0.60;;;7.20;99.90;;;7.65;100.00;-20890.50;5004651;28;20511;-69
2020/12/16 00:06:14;;;;;;;0.60;0.60;;;7.10;99.90;;;7.68;100.00;-20891.19;4996432;28;20487;-69
2020/12/16 00:08:41;;;;;;;0.60;0.60;;;7.10;99.90;;;7.67;100.00;-20891.03;5001627;28;20491;-68
2020/12/16 00:11:08;;;;;;;0.60;0.60;;;7.10;99.90;;;7.74;100.00;-20893.00;5016005;28;20425;-69
2020/12/16 00:13:37;;;;;;;0.60;0.60;;;7.20;99.90;;;7.85;100.00;-20895.91;5015718;28;20446;-68
2020/12/16 00:16:05;;;;;;;0.60;0.60;;;7.40;99.90;;;7.86;100.00;-20896.03;5015932;28;20496;-69
2020/12/16 00:18:33;;;;;;;0.70;0.60;;;7.30;99.90;;;7.81;100.00;-20894.78;5016218;28;20457;-68
2020/12/16 00:20:59;;;;;;;0.70;0.60;;;7.30;99.90;;;7.82;100.00;-20894.94;5015943;28;20410;-68
2020/12/16 00:23:26;;;;;;;0.70;0.70;;;7.30;99.90;;;7.82;100.00;-20895.06;5014321;28;20479;-69
2020/12/16 00:25:53;;;;;;;0.70;0.60;;;7.30;99.90;;;7.89;100.00;-20896.88;5007335;28;20455;-68
2020/12/16 00:28:20;;;;;;;0.60;0.60;;;7.30;99.90;;;8.04;100.00;-20901.03;5014943;28;20849;-68
2020/12/16 00:30:48;;;;;;;0.60;0.50;;;7.50;99.90;;;8.16;100.00;-20904.38;5015214;28;20452;-68
2020/12/16 00:33:16;;;;;;;0.60;0.60;;;7.60;99.90;;;8.28;100.00;-20907.56;5015077;28;20864;-68
2020/12/16 00:35:43;;;;;;;0.60;0.50;;;7.60;99.90;;;8.30;100.00;-20907.97;5030879;28;20511;-68
2020/12/16 00:38:11;;;;;;;0.60;0.50;;;7.70;99.90;;;8.29;100.00;-20907.69;5014669;28;20486;-69
2020/12/16 00:40:38;;;;;;;0.60;0.50;;;7.70;99.90;;;8.46;100.00;-20912.41;5012275;28;20542;-68
2020/12/16 00:43:06;;;;;;;0.60;0.50;;;7.80;99.90;;;8.48;100.00;-20912.97;5013466;28;20475;-66
2020/12/16 00:45:33;;;;;;;0.60;0.50;;;7.80;99.90;;;8.57;100.00;-20915.47;5015119;28;20417;-68
2020/12/16 00:48:01;;;;;;;0.60;0.60;;;7.80;99.90;;;8.45;100.00;-20912.13;4996631;28;20430;-68
2020/12/16 00:50:30;;;;;;;0.70;0.70;;;7.80;99.90;;;8.48;100.00;-20912.84;5007970;28;20453;-68
2020/12/16 00:53:04;;;;;;;0.60;0.60;;;7.80;99.90;;;8.38;100.00;-20910.34;5004721;28;20511;-69
2020/12/16 00:55:40;;;;;;;0.60;0.60;;;7.80;99.90;;;8.44;100.00;-20912.00;5013655;28;20984;-69
2020/12/16 00:58:20;;;;;;;0.60;0.60;;;7.80;99.90;;;8.54;100.00;-20914.50;5013825;28;20435;-69
2020/12/16 01:00:54;;;;;;;0.60;0.60;;;7.80;99.90;;;8.50;100.00;-20913.53;5014335;28;20979;-69
2020/12/16 01:03:25;;;;;;;0.60;0.60;;;7.80;99.90;;;8.54;100.00;-20914.63;5014644;28;20464;-69
2020/12/16 01:05:52;;;;;;;0.60;0.60;;;7.80;99.90;;;8.43;100.00;-20911.72;5029203;28;20539;-69
2020/12/16 01:08:20;;;;;;;0.60;0.60;;;7.80;99.90;;;8.39;100.00;-20910.47;5029890;28;20444;-68
2020/12/16 01:10:49;;;;;;;0.70;0.60;;;7.80;99.90;;;8.49;100.00;-20913.25;5029706;28;20448;-69
2020/12/16 01:13:16;;;;;;;0.70;0.60;;;7.80;99.90;;;8.51;100.00;-20913.81;5013452;28;20936;-68
2020/12/16 01:15:45;;;;;;;0.60;0.60;;;7.80;99.90;;;8.53;100.00;-20914.34;5013177;28;20471;-68
2020/12/16 01:18:12;;;;;;;0.60;0.60;;;7.80;99.90;;;8.51;100.00;-20913.81;5012635;28;20512;-68
2020/12/16 01:20:44;;;;;;;1.30;1.23;;;7.80;99.90;;;8.41;100.00;-20911.03;5029634;28;20805;-68
2020/12/16 01:23:20;;;;;;;0.60;0.60;;;7.80;99.90;;;8.37;100.00;-20909.91;5011060;28;20442;-69
2020/12/16 01:25:48;;;;;;;0.70;0.60;;;7.80;99.90;;;8.43;100.00;-20911.59;5014639;28;20430;-66
2020/12/16 01:28:15;;;;;;;0.63;0.60;;;7.70;99.90;;;8.41;100.00;-20911.03;5014497;28;20432;-67
2020/12/16 01:30:56;;;;;;;0.60;0.60;;;7.70;99.90;;;8.40;100.00;-20910.88;5012426;28;20948;-66
2020/12/16 01:33:24;;;;;;;0.60;0.50;;;7.80;99.90;;;8.36;100.00;-20909.78;5014035;28;20448;-65
2020/12/16 01:36:03;;;;;;;0.63;0.60;;;7.80;99.90;;;8.33;100.00;-20908.81;5029430;28;20492;-66
2020/12/16 01:38:32;;;;;;;0.60;0.60;;;7.70;99.90;;;8.37;100.00;-20909.91;5012829;28;20444;-68
2020/12/16 01:41:05;;;;;;;0.60;0.50;;;7.80;99.90;;;8.30;100.00;-20907.97;5028470;28;20782;-66
2020/12/16 01:43:37;;;;;;;0.60;0.60;;;7.80;99.90;;;8.33;100.00;-20908.94;5027001;28;20452;-68
2020/12/16 01:46:06;;;;;;;0.60;0.60;;;7.70;99.90;;;8.30;100.00;-20908.13;5028625;28;20503;-68
2020/12/16 01:48:35;;;;;;;0.60;0.50;;;7.70;99.90;;;8.37;100.00;-20910.06;5012117;28;20468;-69
2020/12/16 01:51:03;;;;;;;0.60;0.50;;;7.70;99.90;;;8.41;100.00;-20911.03;5029257;28;20530;-68
2020/12/16 01:53:33;;;;;;;1.07;0.90;;;7.80;99.90;;;8.34;100.00;-20909.22;5009614;28;20449;-68
2020/12/16 01:56:01;;;;;;;0.60;0.50;;;7.70;99.90;;;8.46;100.00;-20912.41;4994967;28;21003;-69
2020/12/16 01:58:53;;;;;;;0.70;0.60;;;7.70;99.90;;;8.36;100.00;-20909.78;5013580;28;20446;-68
2020/12/16 02:01:26;;;;;;;0.60;0.50;;;7.70;99.90;;;8.40;100.00;-20910.75;5029264;28;20444;-68
2020/12/16 02:03:56;;;;;;;1.00;0.87;;;7.70;99.90;;;8.39;100.00;-20910.63;5012968;28;21019;-68
2020/12/16 02:06:35;;;;;;;0.60;0.60;;;7.80;99.90;;;8.39;100.00;-20910.47;5027561;28;20976;-69
2020/12/16 02:09:09;;;;;;;0.60;0.60;;;7.70;99.90;;;8.29;100.00;-20907.69;5012644;28;20539;-68
2020/12/16 02:11:45;;;;;;;0.63;0.60;;;7.70;99.90;;;8.25;100.00;-20906.72;5013951;28;20474;-67
2020/12/16 02:14:20;;;;;;;0.60;0.60;;;7.70;99.90;;;8.22;100.00;-20906.03;5012548;28;20505;-68
2020/12/16 02:16:53;;;;;;;0.80;0.73;;;7.60;99.90;;;8.16;100.00;-20904.38;5028342;28;20422;-68
2020/12/16 02:19:26;;;;;;;0.60;0.60;;;7.60;99.90;;;8.20;100.00;-20905.47;4996161;28;20550;-68
2020/12/16 02:22:17;;;;;;;0.60;0.50;;;7.60;99.90;;;8.12;100.00;-20903.25;5012303;28;20480;-68
2020/12/16 02:25:01;;;;;;;0.60;0.57;;;7.60;99.90;;;8.01;100.00;-20900.19;5013853;28;20429;-68
2020/12/16 02:27:32;;;;;;;0.60;0.60;;;7.60;99.90;;;8.02;100.00;-20900.47;5012683;28;20527;-68
2020/12/16 02:30:07;;;;;;;0.60;0.50;;;7.50;99.90;;;8.01;100.00;-20900.19;5009286;28;20520;-68
2020/12/16 02:33:01;;;;;;;0.60;0.50;;;7.50;99.90;;;8.03;100.00;-20900.63;5009359;28;20502;-68
2020/12/16 02:35:34;;;;;;;0.67;0.67;;;7.50;99.90;;;8.09;100.00;-20902.41;5001619;28;20548;-68
2020/12/16 02:38:10;;;;;;;0.60;0.60;;;7.50;99.90;;;8.06;100.00;-20901.44;4994100;28;20541;-68
2020/12/16 02:40:39;;;;;;;0.60;0.50;;;7.50;99.90;;;8.03;100.00;-20900.75;4998097;28;20446;-68
2020/12/16 02:43:07;;;;;;;0.60;0.50;;;7.50;99.90;;;7.97;100.00;-20899.22;5012215;28;20564;-68
2020/12/16 02:45:34;;;;;;;0.60;0.60;;;7.50;99.90;;;7.99;100.00;-20899.78;5013782;28;20408;-68
2020/12/16 02:48:13;;;;;;;0.60;0.60;;;7.50;99.90;;;7.92;100.00;-20897.72;5028043;28;20477;-68
2020/12/16 02:50:45;;;;;;;0.60;0.60;;;7.50;99.90;;;7.79;100.00;-20894.09;5027627;28;20473;-68
2020/12/16 02:53:13;;;;;;;0.60;0.60;;;7.40;99.90;;;7.69;100.00;-20891.47;5005260;28;20523;-67
2020/12/16 02:55:59;;;;;;;0.60;0.60;;;7.30;99.90;;;7.63;100.00;-20889.94;5013357;28;20450;-67
2020/12/16 02:58:32;;;;;;;0.60;0.50;;;7.30;99.90;;;7.54;100.00;-20887.44;5011290;28;20512;-68
2020/12/16 03:00:59;;;;;;;0.60;0.60;;;7.20;99.90;;;7.44;100.00;-20884.66;5013634;28;20422;-68
2020/12/16 03:03:55;;;;;;;0.60;0.60;;;7.10;99.90;;;7.46;100.00;-20885.22;5012660;28;20466;-67
2020/12/16 03:06:56;;;;;;;0.70;0.60;;;7.10;99.90;;;7.37;100.00;-20882.72;5011886;28;20511;-68
2020/12/16 03:09:29;;;;;;;0.60;0.60;;;7.00;99.90;;;7.38;100.00;-20883.13;5011483;28;20451;-67
2020/12/16 03:11:58;;;;;;;0.70;0.60;;;7.00;99.90;;;7.42;100.00;-20884.09;4995759;28;20555;-67
2020/12/16 03:14:34;;;;;;;0.60;0.60;;;7.10;99.90;;;7.40;100.00;-20883.53;5011889;28;20460;-67
2020/12/16 03:17:01;;;;;;;0.70;0.60;;;7.10;99.90;;;7.45;100.00;-20885.06;5010217;28;20969;-67
2020/12/16 03:19:36;;;;;;;0.60;0.60;;;7.10;99.90;;;7.38;100.00;-20883.00;5011781;28;20470;-68
2020/12/16 03:22:03;;;;;;;0.60;0.57;;;7.10;99.90;;;7.37;100.00;-20882.72;5013283;28;20430;-68
2020/12/16 03:25:06;;;;;;;0.60;0.60;;;7.00;99.90;;;7.33;100.00;-20881.59;4958678;28;20430;-67
2020/12/16 03:27:44;;;;;;;0.70;0.60;;;7.00;99.90;;;7.32;100.00;-20881.47;4998389;28;21008;-68
2020/12/16 03:30:47;;;;;;;0.60;0.50;;;7.00;99.90;;;7.37;100.00;-20882.84;4994465;28;20830;-68
2020/12/16 03:33:44;;;;;;;0.70;0.60;;;7.00;99.90;;;7.32;100.00;-20881.31;5013709;28;20473;-69
2020/12/16 03:36:28;;;;;;;0.60;0.50;;;7.00;99.90;;;7.41;100.00;-20883.81;5016162;28;20476;-68
2020/12/16 03:38:59;;;;;;;0.60;0.60;;;7.10;99.90;;;7.45;100.00;-20884.94;5032067;28;20446;-68
2020/12/16 03:41:26;;;;;;;0.60;0.50;;;7.10;99.90;;;7.52;100.00;-20886.75;5016538;28;20422;-67
2020/12/16 03:43:58;;;;;;;0.67;0.60;;;7.20;99.90;;;7.49;100.00;-20886.03;5015241;28;20441;-68
2020/12/16 03:46:26;;;;;;;0.60;0.60;;;7.20;99.90;;;7.60;100.00;-20888.97;4998670;28;20871;-69
2020/12/16 03:48:54;;;;;;;0.70;0.60;;;7.20;99.90;;;7.65;100.00;-20890.50;5011670;28;20462;-68
2020/12/16 03:51:23;;;;;;;0.60;0.50;;;7.20;99.90;;;7.78;100.00;-20893.97;5016329;28;20457;-68
2020/12/16 03:53:56;;;;;;;0.60;0.50;;;7.30;99.90;;;7.75;100.00;-20893.25;5031717;28;20445;-68
2020/12/16 03:56:32;;;;;;;0.60;0.60;;;7.40;99.90;;;7.67;100.00;-20890.91;5014597;28;20466;-69
2020/12/16 03:59:20;;;;;;;0.60;0.50;;;7.30;99.90;;;7.64;100.00;-20890.22;5015130;28;20436;-68
2020/12/16 04:02:20;;;;;;;0.60;0.50;;;7.30;99.90;;;7.56;100.00;-20888.00;4982695;28;20442;-67
2020/12/16 04:05:15;;;;;;;0.63;0.60;;;7.20;99.90;;;7.52;100.00;-20886.88;5020181;28;20452;-68
2020/12/16 04:07:43;;;;;;;0.60;0.50;;;7.20;99.90;;;7.42;100.00;-20884.09;5014461;28;20480;-67
2020/12/16 04:10:26;;;;;;;0.60;0.60;;;7.10;99.90;;;7.29;100.00;-20880.63;5031216;28;20458;-68
2020/12/16 04:12:53;;;;;;;0.60;0.50;;;7.00;99.90;;;7.13;100.00;-20876.31;5015022;28;20433;-68
2020/12/16 04:15:21;;;;;;;0.60;0.60;;;6.90;99.90;;;7.13;100.00;-20876.31;5029181;28;20489;-67
2020/12/16 04:17:48;;;;;;;0.60;0.50;;;6.90;99.90;;;7.11;100.00;-20875.78;5010480;28;20476;-68
2020/12/16 04:20:18;;;;;;;0.60;0.60;;;6.90;99.90;;;7.06;100.00;-20874.25;5014585;28;20431;-68
2020/12/16 04:22:55;;;;;;;0.60;0.60;;;6.80;99.90;;;6.98;100.00;-20872.28;5013887;28;20469;-68
2020/12/16 04:25:22;;;;;;;0.60;0.50;;;6.70;99.90;;;7.03;100.00;-20873.53;5014337;28;20477;-68
2020/12/16 04:27:50;;;;;;;0.60;0.50;;;6.80;99.90;;;7.05;100.00;-20873.97;5007681;28;20433;-67
2020/12/16 04:30:19;;;;;;;0.60;0.50;;;6.80;99.90;;;7.02;100.00;-20873.28;4995070;28;20943;-67
2020/12/16 04:32:59;;;;;;;0.60;0.60;;;6.70;99.90;;;6.93;100.00;-20870.91;4994087;28;20442;-67
2020/12/16 04:35:29;;;;;;;0.60;0.60;;;6.60;99.90;;;6.92;100.00;-20870.50;5012256;28;20477;-68
2020/12/16 04:37:57;;;;;;;0.67;0.60;;;6.60;99.90;;;6.89;100.00;-20869.66;5014994;28;20997;-69
2020/12/16 04:40:26;;;;;;;0.60;0.50;;;6.50;99.90;;;6.82;100.00;-20867.72;5013190;28;20446;-68
2020/12/16 04:43:03;;;;;;;0.60;0.60;;;6.50;99.90;;;6.92;100.00;-20870.50;5013796;28;20545;-68
2020/12/16 04:45:33;;;;;;;0.60;0.60;;;6.60;99.90;;;6.99;100.00;-20872.44;5010697;28;20433;-68
2020/12/16 04:48:02;;;;;;;0.60;0.60;;;6.80;99.90;;;6.97;100.00;-20871.88;5014211;28;20435;-68
2020/12/16 04:50:30;;;;;;;0.60;0.50;;;6.70;99.90;;;6.91;100.00;-20870.22;5013950;28;20434;-67
2020/12/16 04:53:02;;;;;;;0.60;0.50;;;6.70;99.90;;;6.83;100.00;-20868.00;5013903;28;20546;-68
2020/12/16 04:55:42;;;;;;;0.60;0.60;;;6.50;99.90;;;6.62;100.00;-20862.44;5013450;28;20829;-68
2020/12/16 04:58:20;;;;;;;0.70;0.60;;;6.30;99.90;;;6.53;100.00;-20859.94;5014166;28;20455;-68
2020/12/16 05:00:47;;;;;;;0.60;0.60;;;6.20;99.90;;;6.40;100.00;-20856.31;5013655;28;20941;-68
2020/12/16 05:03:28;;;;;;;0.60;0.50;;;6.10;99.90;;;6.25;100.00;-20852.41;5013023;28;20557;-68
2020/12/16 05:06:10;;;;;;;0.60;0.60;;;6.00;99.90;;;6.14;100.00;-20849.38;5012991;28;20517;-68
2020/12/16 05:08:37;;;;;;;0.60;0.50;;;5.90;99.90;;;6.05;100.00;-20846.88;5014802;28;20438;-68
2020/12/16 05:11:04;;;;;;;0.60;0.50;;;5.80;99.90;;;6.03;100.00;-20846.44;5014825;28;20422;-68
2020/12/16 05:13:32;;;;;;;0.60;0.60;;;5.70;99.90;;;6.02;100.00;-20846.03;5014864;28;20422;-67
2020/12/16 05:16:02;;;;;;;0.60;0.60;;;5.70;99.90;;;6.05;100.00;-20846.88;5013903;28;20542;-68
2020/12/16 05:18:30;;;;;;;0.70;0.70;;;5.90;99.90;;;6.05;100.00;-20847.00;5014058;28;20561;-68
2020/12/16 05:20:59;;;;;;;0.60;0.60;;;5.80;99.90;;;5.94;100.00;-20843.81;5014681;28;20416;-68
2020/12/16 05:23:28;;;;;;;0.60;0.50;;;5.70;99.90;;;5.76;100.00;-20839.06;5014217;28;20445;-68
2020/12/16 05:26:01;;;;;;;0.60;0.50;;;5.60;99.90;;;5.72;100.00;-20837.97;5014705;28;20423;-68
2020/12/16 05:28:30;;;;;;;0.80;0.70;;;5.50;99.90;;;5.54;100.00;-20832.94;5014499;28;20516;-67
2020/12/16 05:31:01;;;;;;;0.63;0.60;;;5.40;99.90;;;5.45;100.00;-20830.59;5014404;28;20422;-68
2020/12/16 05:33:30;;;;;;;0.60;0.60;;;5.30;99.90;;;5.42;100.00;-20829.59;5013694;28;20468;-68
2020/12/16 05:35:57;;;;;;;0.60;0.50;;;5.20;99.90;;;5.47;100.00;-20831.00;5013480;28;20500;-68
2020/12/16 05:38:24;;;;;;;0.70;0.70;;;5.20;99.90;;;5.48;100.00;-20831.41;5014459;28;20509;-68
2020/12/16 05:40:51;;;;;;;0.60;0.50;;;5.30;99.90;;;5.52;100.00;-20832.38;5014415;28;20842;-68
2020/12/16 05:43:24;;;;;;;0.60;0.50;;;5.40;99.90;;;5.54;100.00;-20833.09;5013675;28;20456;-67
2020/12/16 05:45:56;;;;;;;0.70;0.60;;;5.40;99.90;;;5.60;100.00;-20834.47;5014158;28;20444;-68
2020/12/16 05:48:29;;;;;;;0.70;0.60;;;5.50;99.90;;;5.71;100.00;-20837.53;5013220;28;20508;-67
2020/12/16 05:50:59;;;;;;;0.60;0.60;;;5.60;99.90;;;5.84;100.00;-20841.00;5012593;28;20438;-68
2020/12/16 05:53:27;;;;;;;0.60;0.60;;;5.60;99.90;;;6.08;100.00;-20847.56;5013905;28;20520;-68
2020/12/16 05:55:57;;;;;;;0.60;0.60;;;5.90;99.90;;;6.00;100.00;-20845.63;5013801;28;20802;-67
2020/12/16 05:58:26;;;;;;;0.60;0.60;;;5.90;99.90;;;5.84;100.00;-20841.00;5014244;28;20445;-68
2020/12/16 06:00:55;;;;;;;0.60;0.60;;;5.70;99.90;;;5.96;100.00;-20844.34;5014117;28;20817;-68
2020/12/16 06:03:28;;;;;;;0.60;0.60;;;5.80;99.90;;;6.25;100.00;-20852.41;5013222;28;20496;-67
2020/12/16 06:05:59;;;;;;;0.60;0.60;;;6.10;99.90;;;6.41;100.00;-20856.75;5013562;28;20500;-68
2020/12/16 06:08:32;;;;;;;0.60;0.60;;;6.20;99.90;;;6.45;100.00;-20857.72;5009858;28;20856;-68
2020/12/16 06:10:59;;;;;;;0.60;0.60;;;6.40;99.90;;;6.54;100.00;-20860.34;5008326;28;20439;-67
2020/12/16 06:13:27;;;;;;;0.60;0.50;;;6.40;99.90;;;6.46;100.00;-20858.00;5009285;28;20509;-67
2020/12/16 06:15:57;;;;;;;0.60;0.50;;;6.40;99.90;;;6.54;100.00;-20860.34;5011472;28;20548;-68
2020/12/16 06:18:29;;;;;;;0.60;0.50;;;6.40;99.90;;;6.66;100.00;-20863.41;5012099;28;20509;-67
2020/12/16 06:20:58;;;;;;;0.60;0.60;;;6.60;99.90;;;6.73;100.00;-20865.50;5011938;28;20462;-69
2020/12/16 06:23:34;;;;;;;0.60;0.60;;;6.60;99.90;;;6.62;100.00;-20862.44;5001121;28;20470;-67
2020/12/16 06:26:12;;;;;;;0.60;0.60;;;6.50;99.90;;;6.66;100.00;-20863.53;5004720;28;20446;-67
2020/12/16 06:28:40;;;;;;;0.60;0.50;;;6.60;99.90;;;6.76;100.00;-20866.31;4998256;28;20990;-68
2020/12/16 06:31:20;;;;;;;1.00;0.70;;;6.60;99.90;;;6.84;100.00;-20868.28;5009246;28;20470;-68
2020/12/16 06:33:55;;;;;;;0.60;0.60;;;6.70;99.90;;;6.86;100.00;-20868.81;5005275;28;20462;-68
2020/12/16 06:36:30;;;;;;;0.60;0.50;;;6.60;99.90;;;6.92;100.00;-20870.63;5011181;28;21040;-68
2020/12/16 06:38:58;;;;;;;0.60;0.60;;;6.70;99.90;;;7.00;100.00;-20872.72;5013343;28;20450;-67
2020/12/16 06:41:28;;;;;;;0.60;0.60;;;6.80;99.90;;;7.04;100.00;-20873.81;5013001;28;20477;-68
2020/12/16 06:43:57;;;;;;;0.60;0.60;;;6.80;99.90;;;7.02;100.00;-20873.28;5013110;28;20522;-68
2020/12/16 06:46:49;;;;;;;0.60;0.60;;;6.80;99.90;;;7.11;100.00;-20875.78;5009566;28;20517;-68
2020/12/16 06:49:41;;;;;;;0.60;0.50;;;6.90;99.90;;;7.15;100.00;-20876.88;5004744;28;20510;-67
2020/12/16 06:52:13;;;;;;;0.60;0.50;;;6.90;99.90;;;7.01;100.00;-20873.13;5011826;28;20472;-68
2020/12/16 06:54:53;;;;;;;0.60;0.60;;;6.70;99.90;;;6.95;100.00;-20871.47;5003883;28;20438;-67
2020/12/16 06:57:25;;;;;;;0.60;0.50;;;6.70;99.90;;;6.82;100.00;-20867.84;5000329;28;20466;-67
2020/12/16 06:59:58;;;;;;;0.60;0.50;;;6.60;99.90;;;6.68;100.00;-20864.09;5012021;28;20990;-68
2020/12/16 07:02:30;;;;;;;0.60;0.60;;;6.40;99.90;;;6.48;100.00;-20858.53;5009693;28;20451;-68
2020/12/16 07:04:59;;;;;;;0.60;0.50;;;6.30;99.90;;;6.34;100.00;-20854.66;5014893;28;20462;-67
2020/12/16 07:07:55;;;;;;;0.60;0.60;;;6.10;99.90;;;6.20;100.00;-20850.91;5017060;28;20445;-68
2020/12/16 07:10:44;;;;;;;0.60;0.60;;;6.00;99.90;;;6.08;100.00;-20847.69;5017160;28;20527;-68
2020/12/16 07:13:19;;;;;;;0.60;0.50;;;5.90;99.90;;;6.06;100.00;-20847.13;5008206;28;20454;-68
2020/12/16 07:15:48;;;;;;;0.60;0.60;;;6.00;99.90;;;6.00;100.00;-20845.47;5009543;28;20873;-68
2020/12/16 07:18:54;;;;;;;0.60;0.50;;;5.80;99.90;;;5.97;100.00;-20844.78;5005255;28;20482;-69
2020/12/16 07:21:28;;;;;;;0.60;0.60;;;5.70;99.90;;;6.05;100.00;-20846.88;5008960;28;20841;-68
2020/12/16 07:24:09;;;;;;;0.60;0.60;;;5.80;99.90;;;6.40;100.00;-20856.31;5016258;28;20941;-68
2020/12/16 07:26:50;;;;;;;0.60;0.50;;;6.10;99.90;;;6.36;100.00;-20855.34;5014878;28;20445;-68
2020/12/16 07:29:30;;;;;;;0.60;0.50;;;6.20;99.90;;;6.37;100.00;-20855.63;5016863;28;20438;-68
2020/12/16 07:32:04;;;;;;;0.60;0.60;;;6.20;99.90;;;6.35;100.00;-20854.94;5016856;28;20421;-68
2020/12/16 07:34:43;;;;;;;0.60;0.50;;;6.20;99.90;;;6.40;100.00;-20856.47;5016227;28;20830;-68
2020/12/16 07:37:11;;;;;;;0.60;0.50;;;6.20;99.90;;;6.41;100.00;-20856.75;5014175;28;20462;-67
2020/12/16 07:39:47;;;;;;;0.70;0.50;;;6.20;99.90;;;6.35;100.00;-20854.94;5013635;28;20787;-68
2020/12/16 07:42:20;;;;;;;0.60;0.50;;;6.20;99.90;;;6.42;100.00;-20856.88;4997737;28;20469;-68
2020/12/16 07:44:47;;;;;;;0.60;0.50;;;6.20;99.90;;;6.49;100.00;-20858.81;5014554;28;20442;-68
2020/12/16 07:47:16;;;;;;;0.60;0.60;;;6.30;99.90;;;6.45;100.00;-20857.84;5015876;28;20516;-68
2020/12/16 07:49:44;;;;;;;0.60;0.60;;;6.30;99.90;;;6.41;100.00;-20856.75;5014604;28;20990;-67
2020/12/16 07:52:12;;;;;;;0.60;0.60;;;6.20;99.90;;;6.42;100.00;-20856.88;5016107;28;20491;-68
2020/12/16 07:54:39;;;;;;;0.60;0.60;;;6.20;99.90;;;6.44;100.00;-20857.44;5016077;28;20427;-68
2020/12/16 07:57:07;;;;;;;0.60;0.50;;;6.20;99.90;;;6.53;100.00;-20859.94;5015548;28;20528;-69
2020/12/16 07:59:36;;;;;;;0.63;0.60;;;6.30;99.90;;;6.51;100.00;-20859.38;5013154;28;20474;-68
2020/12/16 08:02:11;;;;;;;1.33;1.13;;;6.30;99.90;;;6.46;100.00;-20858.13;5015680;28;20521;-68
2020/12/16 08:04:41;;;;;;;0.60;0.60;;;6.20;99.90;;;6.57;100.00;-20861.03;5016512;28;20536;-68
2020/12/16 08:07:11;;;;;;;0.60;0.50;;;6.30;99.90;;;6.54;100.00;-20860.22;5015838;28;20478;-68
2020/12/16 08:09:50;;;;;;;0.60;0.50;;;6.30;99.90;;;6.54;100.00;-20860.22;5014434;28;20441;-68
2020/12/16 08:12:18;;;;;;;0.60;0.60;;;6.40;99.90;;;6.71;100.00;-20864.94;5006378;28;20453;-68
2020/12/16 08:14:45;;;;;;;0.60;0.60;;;6.40;99.90;;;6.80;100.00;-20867.28;5006667;28;20480;-68
2020/12/16 08:17:13;;;;;;;0.60;0.60;;;6.50;99.90;;;6.96;100.00;-20871.59;5010185;28;20466;-68
2020/12/16 08:19:41;;;;;;;0.60;0.50;;;6.60;99.90;;;6.98;100.00;-20872.16;5004150;28;20508;-69
2020/12/16 08:22:14;;;;;;;0.70;0.60;;;6.60;99.90;;;7.14;100.00;-20876.59;5004968;28;20459;-68
2020/12/16 08:24:58;;;;;;;0.60;0.60;;;6.80;99.90;;;7.36;100.00;-20882.56;5007219;28;20443;-68
2020/12/16 08:27:27;;;;;;;0.60;0.57;;;6.90;99.90;;;7.55;100.00;-20887.56;5009814;28;20975;-68
2020/12/16 08:29:54;;;;;;;0.70;0.60;;;7.10;99.90;;;7.61;100.00;-20889.38;5007078;28;20530;-68
2020/12/16 08:32:26;;;;;;;0.60;0.60;;;7.20;99.90;;;7.72;100.00;-20892.44;5004458;28;20449;-68
2020/12/16 08:34:55;;;;;;;0.60;0.60;;;7.30;99.90;;;7.78;100.00;-20893.97;5007886;28;20528;-69
2020/12/16 08:37:22;;;;;;;0.60;0.60;;;7.30;99.90;;;7.96;100.00;-20898.81;5007383;28;20532;-68
2020/12/16 08:39:50;;;;;;;0.60;0.50;;;7.40;99.90;;;8.03;100.00;-20900.75;5016290;28;20428;-68
2020/12/16 08:42:25;;;;;;;0.60;0.50;;;7.40;99.90;;;7.95;100.00;-20898.53;4998954;28;20460;-69
2020/12/16 08:45:04;;;;;;;0.60;0.60;;;7.40;99.90;;;8.03;100.00;-20900.75;5000621;28;20800;-67
2020/12/16 08:47:32;;;;;;;0.60;0.50;;;7.50;99.90;;;8.22;100.00;-20906.03;5008640;28;20526;-68
2020/12/16 08:49:59;;;;;;;0.87;0.87;;;7.60;99.90;;;8.36;100.00;-20909.63;5014219;28;21019;-69
2020/12/16 08:52:27;;;;;;;0.60;0.50;;;7.60;99.90;;;8.39;100.00;-20910.63;5007439;28;20444;-68
2020/12/16 08:54:54;;;;;;;0.60;0.60;;;7.70;99.90;;;8.49;100.00;-20913.25;5007403;28;20452;-68
2020/12/16 08:57:35;;;;;;;0.60;0.50;;;7.80;99.90;;;8.74;100.00;-20920.03;5014250;28;20454;-69
2020/12/16 09:00:09;;;;;;;0.60;0.60;;;7.80;99.90;;;8.67;100.00;-20918.25;5011743;28;20575;-68
2020/12/16 09:02:36;;;;;;;0.60;0.60;;;7.90;99.90;;;8.49;100.00;-20913.09;5009796;28;20447;-68
2020/12/16 09:05:03;;;;;;;0.60;0.50;;;7.90;99.90;;;8.54;100.00;-20914.50;5013430;28;20464;-68
2020/12/16 09:07:31;;;;;;;0.60;0.60;;;7.90;99.90;;;8.59;100.00;-20916.03;5015098;28;20540;-68
2020/12/16 09:09:58;;;;;;;0.60;0.60;;;8.00;99.90;;;8.54;100.00;-20914.63;5015077;28;20448;-68
2020/12/16 09:12:26;;;;;;;0.60;0.50;;;8.00;99.90;;;8.54;100.00;-20914.63;5012826;28;20803;-68
2020/12/16 09:14:56;;;;;;;0.60;0.60;;;8.00;99.90;;;8.55;100.00;-20914.78;5014821;28;20837;-68
2020/12/16 09:17:25;;;;;;;0.60;0.60;;;8.00;99.90;;;8.60;100.00;-20916.28;5014479;28;20465;-69
2020/12/16 09:19:53;;;;;;;0.60;0.60;;;8.00;99.90;;;8.70;100.00;-20918.94;5012637;28;20469;-67
2020/12/16 09:22:25;;;;;;;0.70;0.70;;;8.10;99.90;;;8.76;100.00;-20920.47;5014972;28;20522;-68
2020/12/16 09:24:53;;;;;;;0.60;0.50;;;8.20;99.90;;;8.80;100.00;-20921.56;5014853;28;20897;-68
2020/12/16 09:27:25;;;;;;;0.60;0.60;;;8.20;99.90;;;8.67;100.00;-20918.25;5014014;28;20422;-68
2020/12/16 09:29:54;;;;;;;0.60;0.60;;;8.10;99.90;;;8.82;100.00;-20922.13;5014519;28;20535;-68
2020/12/16 09:32:26;;;;;;;0.60;0.60;;;8.20;99.90;;;8.82;100.00;-20922.13;5005101;28;20437;-68
2020/12/16 09:34:55;;;;;;;0.60;0.60;;;8.30;99.90;;;8.82;100.00;-20922.13;5014091;28;20508;-67
2020/12/16 09:37:25;;;;;;;0.60;0.60;;;8.30;99.90;;;8.86;100.00;-20923.22;5012926;28;20455;-68
2020/12/16 09:40:05;;;;;;;0.60;0.50;;;8.40;99.90;;;9.01;100.00;-20927.38;5014370;28;20417;-67
2020/12/16 09:42:32;;;;;;;0.80;0.80;;;8.50;99.90;;;9.00;100.00;-20927.13;5013693;28;21028;-69
2020/12/16 09:45:10;;;;;;;1.30;1.10;;;8.50;99.90;;;8.96;100.00;-20926.00;5013731;28;20486;-68
2020/12/16 09:47:42;;;;;;;0.60;0.50;;;8.60;99.90;;;9.27;100.00;-20934.31;5012857;28;20453;-68
2020/12/16 09:50:10;;;;;;;0.60;0.60;;;8.70;99.90;;;9.31;100.00;-20935.41;5014469;28;20479;-67
2020/12/16 09:52:40;;;;;;;0.70;0.60;;;8.90;99.90;;;9.31;100.00;-20935.41;5018880;28;20867;-68
2020/12/16 09:55:16;;;;;;;0.60;0.60;;;8.90;99.90;;;9.30;100.00;-20935.16;5013945;28;20451;-68
2020/12/16 09:57:44;;;;;;;0.60;0.60;;;8.80;99.90;;;9.46;100.00;-20939.56;5009943;28;20520;-68
2020/12/16 10:00:16;;;;;;;0.60;0.60;;;8.90;99.90;;;9.44;100.00;-20939.03;5010161;28;20904;-68
2020/12/16 10:02:43;;;;;;;0.60;0.60;;;8.90;99.90;;;9.54;100.00;-20941.81;5012679;28;20507;-68
2020/12/16 10:05:11;;;;;;;0.60;0.50;;;9.00;99.90;;;9.51;100.00;-20940.97;5009496;28;20562;-68
2020/12/16 10:07:39;;;;;;;0.60;0.60;;;9.10;99.90;;;9.65;100.00;-20944.84;5013728;28;20463;-68
2020/12/16 10:10:06;;;;;;;0.60;0.60;;;9.20;99.90;;;9.82;100.00;-20949.28;5003166;28;20825;-68
2020/12/16 10:12:34;;;;;;;0.60;0.50;;;9.30;99.90;;;9.85;100.00;-20950.09;5028521;28;20537;-68
2020/12/16 10:15:01;;;;;;;0.60;0.60;;;9.40;99.90;;;10.04;100.00;-20955.38;5013285;28;20436;-69
2020/12/16 10:17:29;;;;;;;0.63;0.60;;;9.50;99.90;;;10.06;100.00;-20955.91;5013227;28;20818;-68
2020/12/16 10:20:02;;;;;;;0.70;0.70;;;9.60;99.90;;;10.02;100.00;-20954.81;5002733;28;20460;-68
2020/12/16 10:22:33;;;;;;;0.60;0.60;;;9.60;99.90;;;10.06;100.00;-20955.91;5012854;28;20921;-68
2020/12/16 10:25:02;;;;;;;0.60;0.60;;;9.70;99.90;;;10.02;100.00;-20954.81;5013869;28;20421;-68
2020/12/16 10:27:37;;;;;;;0.60;0.53;;;9.70;99.90;;;9.88;100.00;-20950.94;5009171;28;20422;-67
2020/12/16 10:30:07;;;;;;;0.60;0.50;;;9.70;99.90;;;10.06;100.00;-20955.91;5021084;28;20421;-68
2020/12/16 10:32:39;;;;;;;0.60;0.53;;;9.70;99.90;;;10.03;100.00;-20955.09;5006410;28;20422;-68
2020/12/16 10:35:08;;;;;;;0.60;0.60;;;9.70;99.90;;;10.12;100.00;-20957.56;5007672;28;20938;-68
2020/12/16 10:37:36;;;;;;;0.60;0.60;;;9.90;99.90;;;10.17;100.00;-20958.81;5012995;28;20865;-68
2020/12/16 10:40:05;;;;;;;0.60;0.60;;;10.00;99.90;;;10.33;100.00;-20963.13;5017360;28;20411;-68